Time;durP1;ratioP1;P1;durP2;ratioP2;P2;SDS_P1;SDS_P2;PMS_P1;PMS_P2;Temp;Humidity;BMP_temperature;BMP_pressure;BME280_temperature;BME280_humidity;BME280_pressure;Samples;Min_cycle;Max_cycle;Signal;HPM_P1;HPM_P2
2023/10/08 00:01:14;;;;;;;1.50;0.60;;;;;;;19.32;53.08;97348.84;105156;1262;73180;-42
2023/10/08 00:03:48;;;;;;;1.40;0.90;;;;;;;19.31;53.08;97344.11;105085;1260;66235;-42
2023/10/08 00:06:19;;;;;;;1.40;0.80;;;;;;;19.30;53.02;97342.79;105185;1259;72613;-42
2023/10/08 00:08:47;;;;;;;1.80;1.00;;;;;;;19.31;53.06;97336.03;105107;1262;61285;-44
2023/10/08 00:11:17;;;;;;;2.10;1.00;;;;;;;19.30;53.01;97323.23;105386;1260;61295;-42
2023/10/08 00:13:48;;;;;;;1.40;0.80;;;;;;;19.29;52.89;97319.25;105409;1261;74407;-42
2023/10/08 00:16:21;;;;;;;2.30;0.70;;;;;;;19.29;52.83;97323.52;105105;1260;66214;-42
2023/10/08 00:18:50;;;;;;;1.40;0.80;;;;;;;19.28;52.97;97329.71;105382;1260;71361;-42
2023/10/08 00:21:25;;;;;;;1.30;0.70;;;;;;;19.28;52.85;97325.28;105167;1260;61474;-43
2023/10/08 00:23:57;;;;;;;2.30;0.90;;;;;;;19.28;52.86;97315.67;105446;1260;61267;-43
2023/10/08 00:26:27;;;;;;;1.60;0.90;;;;;;;19.28;52.85;97313.40;105405;1273;74274;-43
2023/10/08 00:28:59;;;;;;;1.30;1.00;;;;;;;19.27;52.75;97314.56;105387;1260;65917;-43
2023/10/08 00:31:31;;;;;;;1.50;0.80;;;;;;;19.27;52.80;97319.21;105358;1259;73500;-44
2023/10/08 00:33:58;;;;;;;1.10;0.70;;;;;;;19.26;52.75;97325.34;105156;1260;61384;-44
2023/10/08 00:36:26;;;;;;;1.10;0.80;;;;;;;19.26;52.74;97331.46;105152;1259;61368;-44
2023/10/08 00:39:00;;;;;;;2.10;0.80;;;;;;;19.25;52.67;97334.31;105357;1262;74622;-42
2023/10/08 00:41:32;;;;;;;1.00;0.70;;;;;;;19.23;52.58;97332.64;105139;1263;66436;-42
2023/10/08 00:44:00;;;;;;;2.40;0.90;;;;;;;19.21;52.66;97327.79;105102;1260;72598;-42
2023/10/08 00:46:31;;;;;;;1.10;0.70;;;;;;;19.19;52.55;97323.59;105101;1262;61258;-42
2023/10/08 00:49:47;;;;;;;1.10;0.60;;;;;;;19.19;52.62;97325.28;105105;1263;61273;-42
2023/10/08 00:52:00;;;;;;;1.60;0.90;;;;;;;19.18;52.68;97314.88;104959;1265;74582;-42
2023/10/08 00:54:28;;;;;;;0.90;0.60;;;;;;;19.18;52.58;97317.83;105083;1262;64922;-42
2023/10/08 00:56:58;;;;;;;1.10;0.70;;;;;;;19.19;52.60;97316.98;105303;1262;72584;-42
2023/10/08 00:59:26;;;;;;;1.80;0.80;;;;;;;19.18;52.58;97316.27;105455;1262;61301;-42
2023/10/08 01:01:59;;;;;;;1.80;0.70;;;;;;;19.18;52.62;97326.89;105475;1260;61376;-42
2023/10/08 01:04:26;;;;;;;0.90;0.70;;;;;;;19.18;52.60;97325.58;105450;1259;74277;-42
2023/10/08 01:07:01;;;;;;;0.90;0.60;;;;;;;19.17;52.42;97322.21;105489;1262;66292;-42
2023/10/08 01:09:38;;;;;;;0.70;0.60;;;;;;;19.16;52.47;97329.10;105374;1263;70843;-42
2023/10/08 01:12:15;;;;;;;1.20;0.70;;;;;;;19.15;52.46;97337.55;105332;1263;61371;-44
2023/10/08 01:14:43;;;;;;;2.20;0.70;;;;;;;19.14;52.48;97333.97;105104;1260;61362;-44
2023/10/08 01:17:19;;;;;;;2.20;0.70;;;;;;;19.13;52.40;97334.17;105258;1262;74545;-44
2023/10/08 01:19:54;;;;;;;2.60;0.70;;;;;;;19.12;52.33;97334.02;105448;1263;65911;-42
2023/10/08 01:22:22;;;;;;;0.90;0.60;;;;;;;19.12;52.37;97337.88;105260;1263;72711;-42
2023/10/08 01:24:50;;;;;;;0.90;0.60;;;;;;;19.12;52.41;97343.63;105252;1265;61431;-42
2023/10/08 01:27:24;;;;;;;0.80;0.70;;;;;;;19.12;52.38;97334.48;105425;1262;61213;-42
2023/10/08 01:29:52;;;;;;;1.50;0.60;;;;;;;19.11;52.29;97338.04;105494;1258;74927;-42
2023/10/08 01:32:20;;;;;;;1.10;0.70;;;;;;;19.12;52.30;97338.42;105363;1262;66318;-42
2023/10/08 01:34:48;;;;;;;0.80;0.60;;;;;;;19.11;52.22;97339.81;105244;1263;72662;-43
2023/10/08 01:37:17;;;;;;;0.90;0.60;;;;;;;19.11;52.19;97358.05;105322;1259;61259;-42
2023/10/08 01:39:45;;;;;;;1.00;0.60;;;;;;;19.11;52.14;97354.92;105495;1260;61353;-42
2023/10/08 01:42:20;;;;;;;1.80;0.80;;;;;;;19.10;52.18;97356.38;105445;1264;74676;-42
2023/10/08 01:44:54;;;;;;;1.20;0.70;;;;;;;19.10;52.07;97360.27;105423;1262;66368;-42
2023/10/08 01:47:25;;;;;;;0.90;0.60;;;;;;;19.10;52.05;97366.16;105460;1259;71230;-42
2023/10/08 01:50:04;;;;;;;0.80;0.60;;;;;;;19.10;52.06;97366.32;105300;1265;61276;-42
2023/10/08 01:52:34;;;;;;;1.30;0.70;;;;;;;19.10;52.04;97362.45;105290;1260;61372;-42
2023/10/08 01:55:03;;;;;;;2.30;0.80;;;;;;;19.10;51.90;97363.77;105174;1261;74548;-42
2023/10/08 01:57:31;;;;;;;1.40;0.70;;;;;;;19.10;51.93;97372.60;105427;1262;66627;-42
2023/10/08 01:59:58;;;;;;;2.20;0.60;;;;;;;19.09;51.72;97372.35;105442;1260;72625;-42
2023/10/08 02:02:26;;;;;;;0.90;0.60;;;;;;;19.09;51.68;97378.09;105121;1273;61264;-43
2023/10/08 02:04:53;;;;;;;1.80;0.80;;;;;;;19.07;51.61;97376.42;105166;1261;61260;-43
2023/10/08 02:07:21;;;;;;;0.70;0.60;;;;;;;19.06;51.63;97385.46;105144;1264;74384;-46
2023/10/08 02:09:48;;;;;;;0.60;0.60;;;;;;;19.06;51.58;97393.84;105132;1264;66278;-43
2023/10/08 02:12:15;;;;;;;0.60;0.40;;;;;;;19.05;51.46;97396.54;105133;1265;72648;-46
2023/10/08 02:14:44;;;;;;;0.70;0.50;;;;;;;19.04;51.48;97395.28;105276;1265;61340;-45
2023/10/08 02:17:13;;;;;;;1.10;0.80;;;;;;;19.03;51.53;97381.63;105250;1265;61230;-44
2023/10/08 02:19:41;;;;;;;0.90;0.60;;;;;;;19.03;51.40;97375.33;105284;1265;74647;-43
2023/10/08 02:22:11;;;;;;;1.00;0.70;;;;;;;19.02;51.34;97372.77;105279;1264;65939;-43
2023/10/08 02:24:39;;;;;;;1.40;0.80;;;;;;;19.01;51.40;97374.91;105260;1266;72663;-43
2023/10/08 02:27:07;;;;;;;1.30;0.60;;;;;;;19.00;51.35;97374.83;105258;1260;61276;-42
2023/10/08 02:29:35;;;;;;;3.00;0.70;;;;;;;19.00;51.22;97374.80;105125;1264;61386;-42
2023/10/08 02:32:04;;;;;;;1.00;0.60;;;;;;;18.98;51.21;97368.56;105284;1263;73447;-42
2023/10/08 02:34:32;;;;;;;0.80;0.70;;;;;;;18.97;51.15;97382.27;105441;1264;66109;-42
2023/10/08 02:36:59;;;;;;;0.80;0.60;;;;;;;18.96;51.13;97382.72;105348;1261;72641;-42
2023/10/08 02:39:27;;;;;;;1.10;0.70;;;;;;;18.96;51.16;97386.45;105376;1262;61267;-42
2023/10/08 02:41:59;;;;;;;1.50;0.50;;;;;;;18.95;51.23;97395.71;105433;1264;61391;-42
2023/10/08 02:44:27;;;;;;;0.90;0.50;;;;;;;18.94;50.95;97389.27;105250;1263;74604;-42
2023/10/08 02:46:55;;;;;;;1.00;0.60;;;;;;;18.94;51.01;97385.85;105054;1272;63977;-42
2023/10/08 02:49:22;;;;;;;1.10;0.60;;;;;;;18.92;50.98;97379.31;105016;1261;72641;-43
2023/10/08 02:51:52;;;;;;;0.80;0.70;;;;;;;18.91;50.94;97374.93;105117;1262;61141;-43
2023/10/08 02:54:32;;;;;;;1.20;0.70;;;;;;;18.90;50.98;97376.56;105122;1262;61263;-43
2023/10/08 02:57:03;;;;;;;1.10;0.70;;;;;;;18.89;51.02;97373.13;105081;1262;74275;-43
2023/10/08 02:59:42;;;;;;;0.70;0.70;;;;;;;18.89;50.96;97367.30;105151;1263;65104;-43
2023/10/08 03:02:29;;;;;;;1.30;0.70;;;;;;;18.87;50.92;97355.34;105110;1261;72665;-43
2023/10/08 03:04:57;;;;;;;1.00;0.60;;;;;;;18.87;50.94;97350.05;105272;1263;61348;-43
2023/10/08 03:07:32;;;;;;;2.90;0.90;;;;;;;18.86;50.96;97347.41;105122;1264;61375;-43
2023/10/08 03:10:06;;;;;;;1.30;0.80;;;;;;;18.84;50.82;97333.96;105436;1259;73318;-43
2023/10/08 03:12:34;;;;;;;1.00;0.70;;;;;;;18.82;50.77;97325.55;105108;1263;65539;-43
2023/10/08 03:15:13;;;;;;;3.40;0.70;;;;;;;18.82;50.91;97341.59;105473;1262;72587;-43
2023/10/08 03:17:51;;;;;;;1.00;0.70;;;;;;;18.83;50.85;97352.77;105443;1260;61475;-43
2023/10/08 03:23:51;;;;;;;0.90;0.50;;;;;;;18.81;50.87;97347.23;105285;1265;74601;-43
2023/10/08 03:28:41;;;;;;;1.10;0.70;;;;;;;18.81;50.72;97338.40;105432;1262;72608;-43
2023/10/08 03:31:19;;;;;;;1.50;0.70;;;;;;;18.79;50.73;97351.23;105440;1261;61311;-43
2023/10/08 03:33:51;;;;;;;1.70;1.00;;;;;;;18.79;50.84;97365.96;105291;1265;61302;-43
2023/10/08 03:36:22;;;;;;;0.70;0.70;;;;;;;18.79;50.68;97369.38;105443;1263;74667;-43
2023/10/08 03:38:50;;;;;;;1.10;0.60;;;;;;;18.79;50.76;97360.77;105139;1263;65629;-43
2023/10/08 03:41:29;;;;;;;1.40;0.80;;;;;;;18.78;50.70;97347.18;105135;1263;71450;-43
2023/10/08 03:44:06;;;;;;;1.10;0.80;;;;;;;18.78;50.61;97346.94;105430;1263;61297;-42
2023/10/08 03:46:42;;;;;;;1.10;0.80;;;;;;;18.77;50.69;97354.98;105452;1261;61379;-42
2023/10/08 03:51:53;;;;;;;2.00;0.90;;;;;;;18.76;50.63;97338.30;105096;1263;64756;-44
2023/10/08 03:54:30;;;;;;;1.20;0.70;;;;;;;18.76;50.57;97331.64;105106;1261;72316;-43
2023/10/08 03:56:57;;;;;;;1.30;0.70;;;;;;;18.76;50.62;97337.30;105113;1261;61320;-44
2023/10/08 03:59:40;;;;;;;1.50;0.70;;;;;;;18.76;50.60;97334.12;105322;1260;61363;-43
2023/10/08 04:02:14;;;;;;;3.00;0.90;;;;;;;18.76;50.59;97345.83;105418;1263;73401;-43
2023/10/08 04:04:52;;;;;;;1.10;0.80;;;;;;;18.76;50.60;97358.45;105482;1263;66277;-42
2023/10/08 04:07:25;;;;;;;1.80;0.90;;;;;;;18.77;50.61;97364.75;105152;1261;72349;-42
2023/10/08 04:10:20;;;;;;;1.30;0.80;;;;;;;18.77;50.58;97373.66;105314;1264;61244;-42
2023/10/08 04:12:50;;;;;;;1.20;0.80;;;;;;;18.76;50.54;97372.02;105906;1263;61214;-42
2023/10/08 04:15:17;;;;;;;2.10;0.80;;;;;;;18.75;50.47;97367.73;105206;1261;74666;-42
2023/10/08 04:17:45;;;;;;;1.20;0.90;;;;;;;18.75;50.55;97348.73;105405;1261;64307;-42
2023/10/08 04:23:02;;;;;;;2.40;0.80;;;;;;;18.73;50.45;97365.14;105410;1263;61283;-44
2023/10/08 04:25:29;;;;;;;1.60;1.10;;;;;;;18.71;50.39;97354.64;105167;1261;61384;-42
2023/10/08 04:27:58;;;;;;;1.80;0.80;;;;;;;18.69;50.36;97333.99;105432;1261;74543;-42
2023/10/08 04:30:32;;;;;;;1.60;0.80;;;;;;;18.68;50.49;97329.92;105110;1262;64788;-42
2023/10/08 04:33:06;;;;;;;0.80;0.60;;;;;;;18.67;50.37;97369.52;105401;1262;71460;-42
2023/10/08 04:35:47;;;;;;;3.10;0.70;;;;;;;18.66;50.55;97390.48;105439;1264;61409;-42
2023/10/08 04:38:19;;;;;;;3.00;0.90;;;;;;;18.66;50.40;97383.13;105464;1262;61208;-42
2023/10/08 04:40:51;;;;;;;1.60;0.80;;;;;;;18.66;50.44;97391.04;105025;1260;74667;-43
2023/10/08 04:43:27;;;;;;;0.90;0.70;;;;;;;18.65;50.49;97406.29;105064;1264;64855;-42
2023/10/08 04:45:57;;;;;;;2.30;1.00;;;;;;;18.65;50.45;97413.64;105243;1260;72521;-42
2023/10/08 04:48:27;;;;;;;1.40;0.90;;;;;;;18.64;50.44;97412.23;105274;1262;61295;-42
2023/10/08 04:51:01;;;;;;;1.60;0.80;;;;;;;18.63;50.39;97411.98;105037;1261;61143;-42
2023/10/08 04:53:35;;;;;;;1.80;0.80;;;;;;;18.63;50.47;97416.61;105408;1262;74994;-42
2023/10/08 04:56:13;;;;;;;1.40;0.90;;;;;;;18.62;50.42;97419.63;105442;1261;66253;-42
2023/10/08 04:58:40;;;;;;;1.40;0.80;;;;;;;18.62;50.42;97416.98;105208;1261;71361;-43
2023/10/08 05:01:17;;;;;;;1.90;0.90;;;;;;;18.61;50.44;97420.77;105319;1264;61399;-43
2023/10/08 05:09:13;;;;;;;1.40;0.90;;;;;;;18.59;50.43;97435.52;105452;1262;65985;-43
2023/10/08 05:12:10;;;;;;;1.10;0.80;;;;;;;18.59;50.41;97446.59;105436;1264;72401;-42
2023/10/08 05:14:38;;;;;;;1.50;1.00;;;;;;;18.58;50.45;97445.20;105334;1264;61395;-44
2023/10/08 05:17:09;;;;;;;2.00;1.00;;;;;;;18.58;50.46;97436.59;105194;1262;61357;-43
2023/10/08 05:28:24;;;;;;;1.90;0.90;;;;;;;18.58;50.39;97458.74;105667;1263;61269;-42
2023/10/08 05:30:54;;;;;;;2.40;1.10;;;;;;;18.57;50.41;97468.55;105430;1260;61345;-42
2023/10/08 05:33:25;;;;;;;;;;;;;;;18.56;50.43;97490.32;105389;1261;74608;-44
2023/10/08 05:36:18;;;;;;;4.80;1.30;;;;;;;18.54;50.46;97491.83;105101;1260;66253;-43
2023/10/08 05:38:49;;;;;;;1.50;0.80;;;;;;;18.54;50.48;97499.72;105088;1260;72879;-42
2023/10/08 05:41:27;;;;;;;1.60;1.20;;;;;;;18.53;50.52;97508.54;105073;1260;61245;-43
2023/10/08 05:44:13;;;;;;;1.30;0.90;;;;;;;18.55;50.61;97509.41;105125;1261;61266;-44
2023/10/08 06:13:13;;;;;;;2.20;1.10;;;;;;;18.59;50.22;97561.90;105660;1260;75073;-42
2023/10/08 06:18:28;;;;;;;1.70;0.90;;;;;;;18.56;49.81;97571.29;105095;1263;72570;-44
2023/10/08 06:21:08;;;;;;;1.20;0.90;;;;;;;18.56;49.68;97582.05;105125;1263;61295;-43
2023/10/08 06:23:39;;;;;;;1.90;1.10;;;;;;;18.55;49.57;97586.39;105388;1260;61379;-43
2023/10/08 06:28:44;;;;;;;1.90;1.00;;;;;;;18.56;49.56;97592.98;105348;1262;66028;-43
2023/10/08 06:31:11;;;;;;;1.60;0.70;;;;;;;18.56;49.56;97584.69;105437;1264;72629;-42
2023/10/08 06:33:40;;;;;;;1.90;0.90;;;;;;;18.57;49.48;97581.91;105443;1262;61304;-42
2023/10/08 06:38:38;;;;;;;2.00;1.00;;;;;;;18.57;49.31;97599.14;105493;1259;73480;-42
2023/10/08 06:43:37;;;;;;;3.20;1.00;;;;;;;18.57;49.19;97606.03;105424;1259;72455;-44
2023/10/08 06:46:07;;;;;;;1.60;1.00;;;;;;;18.57;49.18;97608.05;105294;1263;61263;-42
2023/10/08 06:48:35;;;;;;;1.40;0.90;;;;;;;18.57;49.09;97612.15;105521;1261;61359;-42
2023/10/08 06:51:12;;;;;;;1.50;1.10;;;;;;;18.57;49.07;97611.55;105460;1260;74328;-42
2023/10/08 06:53:41;;;;;;;1.10;0.90;;;;;;;18.58;48.92;97617.36;105369;1261;64585;-44
2023/10/08 06:56:12;;;;;;;1.10;0.80;;;;;;;18.58;48.86;97621.86;105398;1260;72416;-42
2023/10/08 06:58:45;;;;;;;1.70;0.80;;;;;;;18.56;48.84;97616.31;105350;1263;61285;-42
2023/10/08 07:01:13;;;;;;;2.50;1.10;;;;;;;18.56;48.85;97614.70;105389;1262;61270;-42
2023/10/08 07:03:40;;;;;;;2.00;1.10;;;;;;;18.56;48.76;97618.55;105420;1263;74576;-42
2023/10/08 07:06:25;;;;;;;1.00;0.90;;;;;;;18.56;48.62;97617.23;105362;1264;66089;-42
2023/10/08 07:08:55;;;;;;;1.90;1.00;;;;;;;18.57;48.57;97616.64;105521;1261;72584;-42
2023/10/08 07:11:22;;;;;;;1.60;0.80;;;;;;;18.57;48.62;97613.60;105448;1264;61283;-42
2023/10/08 07:13:50;;;;;;;1.40;0.90;;;;;;;18.57;48.61;97620.20;105494;1260;61373;-42
2023/10/08 07:16:20;;;;;;;0.90;0.80;;;;;;;18.57;48.54;97612.70;105368;1264;74627;-44
2023/10/08 07:19:01;;;;;;;1.50;1.00;;;;;;;18.58;48.50;97610.32;105452;1260;66435;-42
2023/10/08 07:21:29;;;;;;;1.10;0.70;;;;;;;18.59;48.59;97606.93;105235;1259;72697;-42
2023/10/08 07:23:57;;;;;;;0.70;0.60;;;;;;;18.58;48.52;97604.13;105531;1260;61302;-42
2023/10/08 07:26:26;;;;;;;1.60;0.70;;;;;;;18.59;48.46;97611.19;105189;1261;61270;-42
2023/10/08 07:28:53;;;;;;;3.90;0.80;;;;;;;18.59;48.48;97610.65;105524;1262;73548;-43
2023/10/08 07:31:22;;;;;;;1.20;0.90;;;;;;;18.59;48.43;97613.30;105348;1259;64731;-44
2023/10/08 07:33:56;;;;;;;1.00;0.80;;;;;;;18.60;48.44;97618.48;105367;1260;72886;-44
2023/10/08 07:36:24;;;;;;;1.30;0.90;;;;;;;18.60;48.38;97619.89;105199;1264;61295;-43
2023/10/08 07:38:52;;;;;;;1.20;0.90;;;;;;;18.59;48.40;97625.92;105492;1262;61290;-43
2023/10/08 07:41:20;;;;;;;2.20;0.90;;;;;;;18.60;48.34;97631.29;105481;1262;74545;-43
2023/10/08 07:43:58;;;;;;;2.00;1.00;;;;;;;18.59;48.29;97627.46;105528;1262;66083;-43
2023/10/08 07:46:28;;;;;;;1.40;0.80;;;;;;;18.59;48.22;97618.72;105462;1260;72440;-43
2023/10/08 07:48:58;;;;;;;1.10;0.70;;;;;;;18.60;48.24;97620.98;105452;1262;61286;-44
2023/10/08 07:51:25;;;;;;;2.00;0.90;;;;;;;18.60;48.18;97619.54;105123;1260;61375;-43
2023/10/08 07:53:59;;;;;;;2.00;0.90;;;;;;;18.60;48.15;97619.21;105425;1262;74578;-43
2023/10/08 07:56:26;;;;;;;1.40;0.80;;;;;;;18.61;48.20;97624.34;105394;1259;66410;-45
2023/10/08 07:58:56;;;;;;;1.20;0.70;;;;;;;18.62;48.11;97627.23;105362;1260;72618;-42
2023/10/08 08:01:27;;;;;;;1.50;1.00;;;;;;;18.62;48.12;97631.55;105261;1263;61362;-42
2023/10/08 08:03:57;;;;;;;3.10;1.00;;;;;;;18.62;47.91;97625.59;105529;1260;61432;-42
2023/10/08 08:06:25;;;;;;;1.30;0.70;;;;;;;18.60;47.74;97622.91;105464;1262;74311;-42
2023/10/08 08:08:55;;;;;;;1.80;1.10;;;;;;;18.59;47.69;97622.80;105352;1262;65822;-43
2023/10/08 08:11:26;;;;;;;1.10;0.90;;;;;;;18.58;47.67;97622.72;105073;1259;72398;-43
2023/10/08 08:13:53;;;;;;;3.40;1.00;;;;;;;18.56;47.60;97622.81;105245;1262;61286;-43
2023/10/08 08:16:21;;;;;;;1.10;1.00;;;;;;;18.54;47.51;97623.09;105119;1259;61297;-42
2023/10/08 08:18:51;;;;;;;2.10;0.80;;;;;;;18.53;47.50;97618.01;105506;1259;74473;-42
2023/10/08 08:21:19;;;;;;;2.20;1.20;;;;;;;18.51;47.39;97616.48;105502;1261;64685;-42
2023/10/08 08:23:49;;;;;;;2.20;1.20;;;;;;;18.49;47.39;97614.27;105548;1261;72607;-42
2023/10/08 08:26:28;;;;;;;1.60;0.90;;;;;;;18.47;47.43;97613.38;105444;1262;61260;-42
2023/10/08 08:28:57;;;;;;;1.80;1.00;;;;;;;18.47;47.35;97615.30;105281;1260;61281;-43
2023/10/08 08:31:27;;;;;;;1.40;0.90;;;;;;;18.46;47.31;97610.14;105239;1262;74696;-41
2023/10/08 08:33:59;;;;;;;2.70;1.00;;;;;;;18.44;47.42;97610.42;105309;1259;66045;-43
2023/10/08 08:36:27;;;;;;;1.80;1.10;;;;;;;18.43;47.31;97613.72;105435;1259;72316;-41
2023/10/08 08:38:54;;;;;;;2.10;1.20;;;;;;;18.42;47.35;97611.90;105350;1263;61471;-43
2023/10/08 08:41:22;;;;;;;1.70;1.00;;;;;;;18.41;47.40;97611.03;105283;1259;61256;-43
2023/10/08 08:43:58;;;;;;;1.60;1.10;;;;;;;18.40;47.38;97609.30;105141;1260;73199;-43
2023/10/08 08:46:35;;;;;;;2.10;1.10;;;;;;;18.39;47.36;97605.72;105502;1259;65918;-43
2023/10/08 08:49:07;;;;;;;3.10;1.20;;;;;;;18.38;47.30;97603.52;105354;1259;72336;-42
2023/10/08 08:51:35;;;;;;;3.50;1.20;;;;;;;18.38;47.39;97610.27;105110;1260;61318;-42
2023/10/08 08:54:09;;;;;;;5.70;1.60;;;;;;;18.36;47.18;97611.00;105366;1260;61372;-43
2023/10/08 08:56:38;;;;;;;8.10;1.40;;;;;;;18.34;47.16;97614.58;105115;1264;74525;-43
2023/10/08 08:59:05;;;;;;;1.90;1.10;;;;;;;18.34;47.29;97611.45;105165;1262;65053;-43
2023/10/08 09:01:33;;;;;;;2.80;1.20;;;;;;;18.35;47.31;97614.13;105159;1260;72463;-44
2023/10/08 09:04:01;;;;;;;3.60;1.30;;;;;;;18.35;47.20;97615.60;105030;1262;192923;-43
2023/10/08 09:06:33;;;;;;;1.70;1.10;;;;;;;18.35;47.24;97621.16;105054;1260;61431;-43
2023/10/08 09:11:51;;;;;;;2.10;1.20;;;;;;;18.34;47.22;97622.48;105146;1259;66341;-43
2023/10/08 09:14:23;;;;;;;3.30;1.30;;;;;;;18.35;47.22;97622.73;105170;1260;72496;-43
2023/10/08 09:16:50;;;;;;;1.90;1.30;;;;;;;18.35;47.13;97624.83;105180;1263;61286;-43
2023/10/08 09:19:23;;;;;;;2.60;1.30;;;;;;;18.36;47.09;97620.02;105521;1259;61359;-43
2023/10/08 09:22:07;;;;;;;2.40;1.30;;;;;;;18.36;47.10;97620.73;105193;1262;74341;-43
2023/10/08 09:24:36;;;;;;;2.40;1.10;;;;;;;18.37;47.15;97615.89;105124;1260;65334;-42
2023/10/08 09:27:08;;;;;;;1.70;1.10;;;;;;;18.38;47.20;97620.02;105137;1260;72575;-43
2023/10/08 09:29:41;;;;;;;1.90;1.10;;;;;;;18.40;47.25;97631.14;105212;1262;61253;-44
2023/10/08 09:32:13;;;;;;;4.50;1.20;;;;;;;18.41;47.23;97653.95;105357;1259;61299;-43
2023/10/08 09:34:40;;;;;;;2.10;1.20;;;;;;;18.43;47.29;97679.50;105364;1262;74405;-43
2023/10/08 09:37:08;;;;;;;2.40;1.10;;;;;;;18.45;47.24;97691.47;105058;1266;65464;-42
2023/10/08 09:39:35;;;;;;;4.20;1.30;;;;;;;18.46;47.33;97688.73;105425;1258;72595;-42
2023/10/08 09:42:03;;;;;;;2.20;1.00;;;;;;;18.47;47.29;97682.23;105058;1264;61260;-44
2023/10/08 09:44:34;;;;;;;1.50;0.90;;;;;;;18.47;47.31;97682.65;105165;1258;61286;-43
2023/10/08 09:47:06;;;;;;;1.70;0.80;;;;;;;18.48;47.33;97689.10;105181;1261;74308;-44
2023/10/08 09:49:43;;;;;;;1.10;0.80;;;;;;;18.48;47.31;97695.38;105507;1259;65020;-45
2023/10/08 09:52:12;;;;;;;1.50;0.90;;;;;;;18.49;47.39;97695.61;105377;1258;71805;-44
2023/10/08 09:54:44;;;;;;;1.50;0.80;;;;;;;18.49;47.42;97697.73;105138;1260;61379;-43
2023/10/08 09:57:11;;;;;;;2.20;1.00;;;;;;;18.50;47.39;97700.16;105056;1262;61254;-43
2023/10/08 09:59:41;;;;;;;2.00;1.00;;;;;;;18.51;47.36;97691.19;105090;1261;74625;-43
2023/10/08 10:02:10;;;;;;;1.10;0.80;;;;;;;18.51;47.33;97686.41;105176;1259;66365;-43
2023/10/08 10:04:43;;;;;;;1.90;0.90;;;;;;;18.51;47.26;97691.83;105222;1259;72661;-43
2023/10/08 10:07:14;;;;;;;1.20;0.60;;;;;;;18.52;47.32;97694.62;105137;1262;61394;-43
2023/10/08 10:09:47;;;;;;;1.50;0.90;;;;;;;18.53;47.33;97693.48;105147;1263;61260;-43
2023/10/08 10:12:18;;;;;;;1.30;0.90;;;;;;;18.52;47.28;97694.09;105091;1259;73773;-43
2023/10/08 10:14:47;;;;;;;2.00;0.80;;;;;;;18.53;47.19;97692.88;105145;1258;64825;-43
2023/10/08 10:17:16;;;;;;;1.00;0.80;;;;;;;18.54;47.13;97690.73;105199;1259;71384;-44
2023/10/08 10:20:06;;;;;;;1.50;0.90;;;;;;;18.54;47.16;97681.50;105131;1262;61359;-42
2023/10/08 10:22:37;;;;;;;1.60;1.00;;;;;;;18.54;47.18;97673.36;105153;1262;61195;-43
2023/10/08 10:25:19;;;;;;;1.70;0.80;;;;;;;18.55;47.27;97673.17;105263;1259;75897;-42
2023/10/08 10:27:49;;;;;;;0.90;0.60;;;;;;;18.56;47.41;97670.02;105033;1259;66003;-42
2023/10/08 10:30:18;;;;;;;1.30;1.00;;;;;;;18.57;47.36;97672.50;105128;1259;72578;-43
2023/10/08 10:32:54;;;;;;;2.10;0.90;;;;;;;18.58;47.25;97672.68;105664;1262;61256;-43
2023/10/08 10:35:21;;;;;;;1.20;0.90;;;;;;;18.56;47.11;97677.14;105163;1259;61280;-43
2023/10/08 10:37:52;;;;;;;1.00;0.80;;;;;;;18.55;46.81;97674.02;105103;1262;74628;-42
2023/10/08 10:40:29;;;;;;;2.80;0.80;;;;;;;18.54;46.60;97679.48;105169;1260;66965;-43
2023/10/08 10:42:57;;;;;;;0.90;0.70;;;;;;;18.52;46.17;97679.05;105465;1262;71419;-43
2023/10/08 10:45:39;;;;;;;2.10;0.80;;;;;;;18.50;45.95;97679.23;105180;1262;61197;-43
2023/10/08 10:53:44;;;;;;;1.00;0.80;;;;;;;18.48;45.83;97673.84;105097;1262;64856;-43
2023/10/08 10:56:18;;;;;;;2.80;0.80;;;;;;;18.50;45.90;97672.89;105124;1261;71539;-43
2023/10/08 10:58:53;;;;;;;0.70;0.70;;;;;;;18.52;45.85;97671.37;105152;1262;61398;-43
2023/10/08 11:01:29;;;;;;;;;;;;;;;18.53;45.74;97679.63;105141;1262;61192;-43
2023/10/08 11:04:00;;;;;;;;;;;;;;;18.54;45.63;97684.52;105166;1260;74639;-43
2023/10/08 11:06:28;;;;;;;1.40;0.70;;;;;;;18.54;45.38;97685.53;105151;1262;66283;-44
2023/10/08 11:08:56;;;;;;;1.80;0.70;;;;;;;18.53;45.35;97680.39;104982;1260;72602;-43
2023/10/08 11:11:27;;;;;;;2.90;0.70;;;;;;;18.53;44.96;97684.64;105163;1262;61596;-43
2023/10/08 11:14:00;;;;;;;0.90;0.60;;;;;;;18.54;44.90;97687.53;106629;1263;61113;-42
2023/10/08 11:16:31;;;;;;;0.90;0.70;;;;;;;18.54;44.72;97684.68;105353;1260;73501;-42
2023/10/08 11:19:06;;;;;;;3.10;0.80;;;;;;;18.54;44.50;97680.34;105329;1262;65961;-43
2023/10/08 11:21:48;;;;;;;0.70;0.60;;;;;;;18.55;44.53;97682.23;107785;1258;72582;-43
2023/10/08 11:24:29;;;;;;;2.30;0.60;;;;;;;18.56;44.22;97681.16;105511;1259;61364;-43
2023/10/08 11:30:00;;;;;;;2.50;0.60;;;;;;;18.58;43.74;97672.46;104656;1270;74456;-43
2023/10/08 11:32:32;;;;;;;1.20;0.70;;;;;;;18.59;43.44;97680.24;105133;1262;66142;-43
2023/10/08 11:35:00;;;;;;;2.10;0.60;;;;;;;18.59;43.00;97681.48;105083;1258;73445;-43
2023/10/08 11:37:35;;;;;;;1.10;0.70;;;;;;;18.58;42.81;97681.31;105203;1262;61302;-43
2023/10/08 11:40:17;;;;;;;2.50;0.80;;;;;;;18.59;42.65;97677.67;105203;1262;61702;-42
2023/10/08 11:42:44;;;;;;;1.40;0.70;;;;;;;18.59;42.55;97677.38;105183;1262;74585;-44
2023/10/08 11:45:17;;;;;;;2.20;0.50;;;;;;;18.61;42.43;97684.15;105201;1260;66301;-44
2023/10/08 11:47:48;;;;;;;1.30;0.60;;;;;;;18.62;42.27;97687.68;105047;1259;72707;-44
2023/10/08 11:50:19;;;;;;;1.00;0.60;;;;;;;18.62;41.72;97689.31;105242;1260;61305;-43
2023/10/08 11:52:46;;;;;;;1.60;0.60;;;;;;;18.63;41.73;97691.80;105709;1260;61371;-41
2023/10/08 11:55:18;;;;;;;1.90;0.70;;;;;;;18.64;41.56;97690.23;105149;1262;74688;-42
2023/10/08 11:57:48;;;;;;;0.80;0.60;;;;;;;18.66;41.21;97687.07;105734;1259;66280;-45
2023/10/08 12:00:19;;;;;;;1.30;0.70;;;;;;;18.66;41.10;97689.41;105180;1259;72507;-42
2023/10/08 12:02:49;;;;;;;3.30;0.90;;;;;;;18.66;41.04;97692.52;105031;1264;61279;-44
2023/10/08 12:05:20;;;;;;;1.10;0.60;;;;;;;18.66;41.12;97692.11;105116;1260;61301;-43
2023/10/08 12:07:48;;;;;;;0.80;0.60;;;;;;;18.66;41.15;97692.97;105688;1262;74611;-43
2023/10/08 12:10:21;;;;;;;0.80;0.60;;;;;;;18.66;41.41;97701.52;105175;1262;66191;-44
2023/10/08 12:12:52;;;;;;;0.90;0.70;;;;;;;18.67;41.27;97704.23;105586;1260;72592;-44
2023/10/08 12:15:21;;;;;;;1.50;0.70;;;;;;;18.68;41.22;97705.09;106877;1260;61401;-42
2023/10/08 12:20:37;;;;;;;1.00;0.70;;;;;;;18.68;40.85;97720.45;106102;1259;74672;-44
2023/10/08 12:23:05;;;;;;;0.90;0.80;;;;;;;18.69;40.73;97719.48;105192;1259;66405;-44
2023/10/08 12:25:32;;;;;;;2.60;1.00;;;;;;;18.72;40.64;97719.86;107120;1263;72698;-42
2023/10/08 12:28:07;;;;;;;1.40;0.70;;;;;;;18.74;40.47;97716.48;104943;1263;61388;-43
2023/10/08 12:30:41;;;;;;;0.90;0.70;;;;;;;18.76;40.33;97722.67;105015;1260;61263;-43
2023/10/08 12:33:15;;;;;;;1.60;0.70;;;;;;;18.78;40.19;97729.65;105229;1259;74439;-42
2023/10/08 12:35:44;;;;;;;1.30;0.90;;;;;;;18.78;39.82;97728.56;105425;1262;65097;-42
2023/10/08 12:38:13;;;;;;;0.90;0.70;;;;;;;18.77;39.80;97732.08;105468;1259;71791;-42
2023/10/08 12:40:53;;;;;;;1.60;0.80;;;;;;;18.76;39.83;97733.23;105241;1262;62128;-42
2023/10/08 12:43:21;;;;;;;1.10;0.70;;;;;;;18.75;39.74;97733.59;105329;1259;61260;-44
2023/10/08 12:45:52;;;;;;;1.30;0.70;;;;;;;18.75;39.75;97730.86;105236;1261;74612;-44
2023/10/08 12:48:24;;;;;;;1.30;0.80;;;;;;;18.75;39.73;97733.10;105138;1262;65590;-43
2023/10/08 12:50:57;;;;;;;1.20;0.90;;;;;;;18.73;39.65;97727.95;105150;1260;70905;-43
2023/10/08 12:53:36;;;;;;;1.80;1.00;;;;;;;18.72;39.72;97730.11;105371;1259;61305;-43
2023/10/08 12:56:05;;;;;;;3.30;0.90;;;;;;;18.73;39.73;97724.45;105293;1259;61306;-43
2023/10/08 12:58:41;;;;;;;2.00;1.00;;;;;;;18.72;39.77;97731.88;105219;1259;74527;-43
2023/10/08 13:01:09;;;;;;;;;;;;;;;18.72;39.80;97730.48;105287;1259;66319;-42
2023/10/08 13:03:47;;;;;;;0.90;0.80;;;;;;;18.71;39.84;97729.05;105173;1259;72662;-42